createdAt,value
2018-03-24T00:00:43.685Z,30.10
2018-03-24T00:01:43.597Z,32.10
2018-03-24T00:02:43.523Z,28.90
2018-03-24T00:03:43.436Z,29.70
2018-03-24T00:04:43.348Z,31.30
2018-03-24T00:05:43.273Z,29.90
2018-03-24T00:06:43.187Z,30.60
2018-03-24T00:07:43.098Z,32.00
2018-03-24T00:08:43.013Z,31.30
2018-03-24T00:09:42.937Z,27.20
2018-03-24T00:10:42.848Z,30.00
2018-03-24T00:11:42.763Z,30.70
2018-03-24T00:12:42.687Z,30.50
2018-03-24T00:13:42.599Z,29.80
2018-03-24T00:14:42.512Z,30.60
2018-03-24T00:15:42.438Z,28.10
2018-03-24T00:16:42.351Z,30.60
2018-03-24T00:17:42.264Z,31.00
2018-03-24T00:18:42.187Z,29.10
2018-03-24T00:19:42.099Z,29.60
2018-03-24T00:20:42.013Z,29.30
2018-03-24T00:21:41.938Z,27.40
2018-03-24T00:22:41.851Z,30.10
2018-03-24T00:23:41.762Z,29.10
2018-03-24T00:24:41.702Z,29.30
2018-03-24T00:25:41.600Z,29.70
2018-03-24T00:26:41.514Z,29.20
2018-03-24T00:27:41.438Z,29.70
2018-03-24T00:28:41.355Z,30.00
2018-03-24T00:29:41.264Z,28.60
2018-03-24T00:30:41.189Z,30.70
2018-03-24T00:31:41.101Z,28.90
2018-03-24T00:32:41.019Z,29.30
2018-03-24T00:33:40.939Z,30.30
2018-03-24T00:34:40.850Z,27.70
2018-03-24T00:35:40.764Z,29.90
2018-03-24T00:36:40.690Z,29.90
2018-03-24T00:37:40.612Z,26.60
2018-03-24T00:38:40.518Z,28.50
2018-03-24T00:39:40.446Z,28.90
2018-03-24T00:40:40.365Z,28.80
2018-03-24T00:41:40.268Z,27.40
2018-03-24T00:42:40.194Z,26.00
2018-03-24T00:43:40.102Z,27.70
2018-03-24T00:44:40.023Z,26.70
2018-03-24T00:45:39.944Z,27.10
2018-03-24T00:46:39.853Z,26.50
2018-03-24T00:47:39.765Z,27.10
2018-03-24T00:48:39.690Z,25.70
2018-03-24T00:49:39.603Z,27.30
2018-03-24T00:50:39.518Z,27.00
2018-03-24T00:51:39.432Z,25.70
2018-03-24T00:52:39.353Z,27.90
2018-03-24T00:53:39.266Z,27.10
2018-03-24T00:54:39.195Z,26.70
2018-03-24T00:55:39.103Z,25.30
2018-03-24T00:56:39.017Z,25.50
2018-03-24T00:57:38.941Z,26.30
2018-03-24T00:58:38.855Z,27.90
2018-03-24T00:59:38.768Z,26.20
2018-03-24T01:00:38.692Z,26.90
2018-03-24T01:01:38.605Z,26.00
2018-03-24T01:02:38.523Z,25.00
2018-03-24T01:03:38.430Z,26.60
2018-03-24T01:04:38.354Z,24.30
2018-03-24T01:05:38.268Z,27.90
2018-03-24T01:06:38.193Z,26.30
2018-03-24T01:07:38.111Z,25.50
2018-03-24T01:08:38.019Z,25.60
2018-03-24T01:09:37.943Z,23.90
2018-03-24T01:10:37.855Z,26.10
2018-03-24T01:11:37.768Z,25.50
2018-03-24T01:12:37.694Z,25.10
2018-03-24T01:13:37.605Z,25.20
2018-03-24T01:14:37.519Z,23.90
2018-03-24T01:15:37.433Z,23.00
2018-03-24T01:16:37.356Z,25.10
2018-03-24T01:17:37.270Z,23.30
2018-03-24T01:18:37.193Z,27.10
2018-03-24T01:19:37.106Z,24.10
2018-03-24T01:20:37.031Z,24.00
2018-03-24T01:21:36.933Z,24.10
2018-03-24T01:22:36.856Z,23.40
2018-03-24T01:23:36.770Z,24.50
2018-03-24T01:24:36.683Z,23.80
2018-03-24T01:25:36.607Z,23.60
2018-03-24T01:26:36.520Z,24.30
2018-03-24T01:27:36.433Z,23.60
2018-03-24T01:28:36.357Z,25.10
2018-03-24T01:29:36.271Z,23.80
2018-03-24T01:30:36.186Z,24.90
2018-03-24T01:31:36.108Z,22.50
2018-03-24T01:32:36.021Z,22.90
2018-03-24T01:33:35.933Z,22.50
2018-03-24T01:34:35.860Z,21.90
2018-03-24T01:35:35.772Z,23.30
2018-03-24T01:36:35.683Z,21.80
2018-03-24T01:37:35.607Z,24.40
2018-03-24T01:38:35.521Z,24.30
2018-03-24T01:39:35.433Z,22.90
2018-03-24T01:40:35.372Z,23.60
2018-03-24T01:41:35.272Z,22.80
2018-03-24T01:42:35.184Z,22.30
2018-03-24T01:43:35.108Z,22.30
2018-03-24T01:44:35.022Z,25.00
2018-03-24T01:45:34.934Z,24.60
2018-03-24T01:46:34.860Z,22.90
2018-03-24T01:47:34.773Z,22.70
2018-03-24T01:48:34.684Z,23.90
2018-03-24T01:49:34.860Z,24.00
2018-03-24T01:50:34.524Z,21.70
2018-03-24T01:51:34.435Z,23.30
2018-03-24T01:52:34.348Z,24.30
2018-03-24T01:53:34.273Z,24.50
2018-03-24T01:54:34.185Z,23.20
2018-03-24T01:55:34.101Z,22.20
2018-03-24T01:56:34.023Z,22.90
2018-03-24T01:57:33.935Z,22.30
2018-03-24T01:58:33.849Z,23.00
2018-03-24T01:59:34.073Z,22.20
2018-03-24T02:00:33.686Z,22.70
2018-03-24T02:01:33.602Z,22.70
2018-03-24T02:02:33.524Z,24.90
2018-03-24T02:03:33.441Z,22.80
2018-03-24T02:04:33.349Z,24.10
2018-03-24T02:05:33.262Z,22.70
2018-03-24T02:06:33.186Z,21.60
2018-03-24T02:07:33.099Z,21.70
2018-03-24T02:08:33.012Z,23.00
2018-03-24T02:09:32.938Z,24.90
2018-03-24T02:10:32.850Z,24.90
2018-03-24T02:11:32.762Z,23.80
2018-03-24T02:12:32.699Z,22.60
2018-03-24T02:13:32.601Z,24.00
2018-03-24T02:14:32.512Z,23.00
2018-03-24T02:15:32.437Z,23.10
2018-03-24T02:16:32.350Z,22.00
2018-03-24T02:17:32.262Z,24.60
2018-03-24T02:18:32.176Z,22.20
2018-03-24T02:19:32.103Z,23.50
2018-03-24T02:20:32.013Z,21.20
2018-03-24T02:21:31.927Z,22.30
2018-03-24T02:22:31.853Z,23.20
2018-03-24T02:23:31.763Z,23.10
2018-03-24T02:24:31.926Z,23.30
2018-03-24T02:25:31.601Z,22.20
2018-03-24T02:26:31.515Z,22.60
2018-03-24T02:27:31.426Z,21.60
2018-03-24T02:28:31.344Z,22.50
2018-03-24T02:29:31.267Z,23.50
2018-03-24T02:30:31.177Z,22.60
2018-03-24T02:31:31.089Z,23.60
2018-03-24T02:32:31.017Z,22.60
2018-03-24T02:33:30.930Z,22.30
2018-03-24T02:34:30.846Z,23.30
2018-03-24T02:35:30.765Z,22.60
2018-03-24T02:36:30.682Z,21.80
2018-03-24T02:37:30.591Z,20.80
2018-03-24T02:38:30.503Z,20.90
2018-03-24T02:39:30.428Z,21.70
2018-03-24T02:40:30.345Z,21.20
2018-03-24T02:41:30.254Z,20.50
2018-03-24T02:42:30.179Z,18.90
2018-03-24T02:43:30.094Z,20.70
2018-03-24T02:44:30.005Z,20.70
2018-03-24T02:45:29.919Z,19.50
2018-03-24T02:46:29.858Z,21.30
2018-03-24T02:47:29.754Z,23.20
2018-03-24T02:48:29.666Z,19.40
2018-03-24T02:49:29.592Z,22.60
2018-03-24T02:50:29.505Z,21.10
2018-03-24T02:51:29.421Z,21.30
2018-03-24T02:52:29.342Z,21.70
2018-03-24T02:53:29.255Z,20.00
2018-03-24T02:54:29.174Z,19.80
2018-03-24T02:55:29.081Z,20.50
2018-03-24T02:56:29.007Z,19.90
2018-03-24T02:57:28.918Z,20.70
2018-03-24T02:58:28.831Z,23.20
2018-03-24T02:59:28.901Z,20.40
2018-03-24T03:00:28.666Z,20.70
2018-03-24T03:01:28.582Z,20.00
2018-03-24T03:02:28.498Z,19.40
2018-03-24T03:03:28.418Z,19.70
2018-03-24T03:04:28.333Z,19.40
2018-03-24T03:05:28.242Z,21.90
2018-03-24T03:06:28.169Z,20.40
2018-03-24T03:07:28.082Z,19.60
2018-03-24T03:08:28.006Z,19.60
2018-03-24T03:09:27.918Z,19.60
2018-03-24T03:10:27.831Z,20.40
2018-03-24T03:11:27.744Z,20.50
2018-03-24T03:12:27.670Z,20.00
2018-03-24T03:13:27.584Z,19.20
2018-03-24T03:14:27.506Z,20.50
2018-03-24T03:15:27.406Z,20.50
2018-03-24T03:16:27.332Z,19.90
2018-03-24T03:17:27.244Z,21.10
2018-03-24T03:18:27.168Z,18.20
2018-03-24T03:19:27.071Z,20.50
2018-03-24T03:20:27.007Z,21.50
2018-03-24T03:21:26.908Z,21.10
2018-03-24T03:22:26.819Z,20.50
2018-03-24T03:23:26.746Z,19.80
2018-03-24T03:24:26.657Z,21.20
2018-03-24T03:25:26.571Z,19.20
2018-03-24T03:26:26.508Z,21.60
2018-03-24T03:27:26.408Z,22.20
2018-03-24T03:28:26.336Z,21.10
2018-03-24T03:29:26.233Z,20.10
2018-03-24T03:30:26.160Z,18.80
2018-03-24T03:31:26.075Z,21.10
2018-03-24T03:32:25.984Z,20.20
2018-03-24T03:33:25.909Z,20.20
2018-03-24T03:34:25.825Z,21.00
2018-03-24T03:35:25.735Z,20.50
2018-03-24T03:36:25.646Z,20.50
2018-03-24T03:37:25.570Z,18.80
2018-03-24T03:38:25.484Z,21.90
2018-03-24T03:39:25.397Z,20.50
2018-03-24T03:40:25.321Z,20.60
2018-03-24T03:41:25.236Z,19.90
2018-03-24T03:42:25.146Z,20.50
2018-03-24T03:43:25.061Z,20.90
2018-03-24T03:44:24.985Z,20.20
2018-03-24T03:45:24.897Z,21.00
2018-03-24T03:46:24.810Z,18.80
2018-03-24T03:47:24.724Z,21.40
2018-03-24T03:48:24.647Z,20.80
2018-03-24T03:49:24.562Z,19.80
2018-03-24T03:50:24.473Z,19.70
2018-03-24T03:51:24.397Z,19.70
2018-03-24T03:52:24.312Z,19.70
2018-03-24T03:53:24.223Z,19.90
2018-03-24T03:54:24.148Z,20.40
2018-03-24T03:55:24.062Z,22.30
2018-03-24T03:56:23.973Z,20.60
2018-03-24T03:57:23.887Z,18.80
2018-03-24T03:58:23.811Z,21.30
2018-03-24T03:59:23.724Z,20.60
2018-03-24T04:00:23.637Z,20.30
2018-03-24T04:01:23.567Z,18.30
2018-03-24T04:02:23.476Z,19.80
2018-03-24T04:03:23.391Z,20.00
2018-03-24T04:04:23.312Z,21.70
2018-03-24T04:05:23.225Z,19.40
2018-03-24T04:06:23.137Z,21.30
2018-03-24T04:07:23.050Z,19.10
2018-03-24T04:08:22.975Z,19.70
2018-03-24T04:09:22.889Z,20.80
2018-03-24T04:10:22.809Z,19.60
2018-03-24T04:11:22.725Z,21.00
2018-03-24T04:12:22.638Z,21.50
2018-03-24T04:13:22.550Z,20.20
2018-03-24T04:14:22.489Z,18.90
2018-03-24T04:15:22.387Z,20.50
2018-03-24T04:16:22.300Z,18.80
2018-03-24T04:17:22.216Z,19.50
2018-03-24T04:18:22.139Z,19.20
2018-03-24T04:19:22.053Z,21.80
2018-03-24T04:20:21.964Z,21.60
2018-03-24T04:21:21.889Z,22.30
2018-03-24T04:22:21.801Z,20.00
2018-03-24T04:23:21.714Z,20.70
2018-03-24T04:24:21.639Z,21.20
2018-03-24T04:25:21.553Z,20.50
2018-03-24T04:26:21.465Z,20.90
2018-03-24T04:27:21.379Z,19.90
2018-03-24T04:28:21.314Z,20.90
2018-03-24T04:29:21.215Z,21.20
2018-03-24T04:30:21.128Z,23.90
2018-03-24T04:31:21.052Z,22.20
2018-03-24T04:32:20.965Z,20.40
2018-03-24T04:33:20.877Z,21.60
2018-03-24T04:34:20.803Z,20.90
2018-03-24T04:35:20.721Z,22.20
2018-03-24T04:36:20.627Z,20.20
2018-03-24T04:37:20.553Z,21.10
2018-03-24T04:38:20.486Z,20.50
2018-03-24T04:39:20.378Z,20.50
2018-03-24T04:40:20.317Z,21.90
2018-03-24T04:41:20.217Z,21.50
2018-03-24T04:42:20.128Z,20.20
2018-03-24T04:43:20.043Z,22.10
2018-03-24T04:44:19.967Z,21.30
2018-03-24T04:45:19.878Z,19.50
2018-03-24T04:46:19.792Z,21.40
2018-03-24T04:47:19.717Z,21.10
2018-03-24T04:48:19.629Z,20.50
2018-03-24T04:49:19.542Z,21.60
2018-03-24T04:50:19.467Z,20.10
2018-03-24T04:51:19.379Z,20.40
2018-03-24T04:52:19.293Z,21.20
2018-03-24T04:53:19.218Z,21.50
2018-03-24T04:54:19.129Z,20.60
2018-03-24T04:55:19.047Z,20.30
2018-03-24T04:56:18.955Z,21.20
2018-03-24T04:57:18.880Z,19.10
2018-03-24T04:58:18.793Z,20.20
2018-03-24T04:59:18.705Z,19.80
2018-03-24T05:00:18.630Z,21.90
2018-03-24T05:01:18.545Z,19.40
2018-03-24T05:02:18.468Z,21.00
2018-03-24T05:03:18.380Z,20.90
2018-03-24T05:04:18.299Z,21.40
2018-03-24T05:05:18.206Z,22.30
2018-03-24T05:06:18.130Z,20.50
2018-03-24T05:07:18.045Z,21.50
2018-03-24T05:08:17.957Z,21.10
2018-03-24T05:09:17.869Z,21.90
2018-03-24T05:10:17.794Z,23.00
2018-03-24T05:11:17.708Z,20.60
2018-03-24T05:12:17.619Z,21.10
2018-03-24T05:13:17.550Z,23.20
2018-03-24T05:14:17.457Z,20.50
2018-03-24T05:15:17.370Z,21.60
2018-03-24T05:16:17.296Z,22.10
2018-03-24T05:17:17.206Z,22.40
2018-03-24T05:18:17.120Z,19.90
2018-03-24T05:19:17.034Z,20.00
2018-03-24T05:20:16.958Z,21.80
2018-03-24T05:21:16.871Z,20.30
2018-03-24T05:22:16.797Z,20.80
2018-03-24T05:23:16.708Z,20.50
2018-03-24T05:24:16.620Z,20.80
2018-03-24T05:25:16.532Z,21.80
2018-03-24T05:26:16.467Z,20.40
2018-03-24T05:27:16.372Z,19.20
2018-03-24T05:28:16.297Z,19.60
2018-03-24T05:29:16.208Z,21.80
2018-03-24T05:30:16.123Z,20.30
2018-03-24T05:31:16.033Z,20.50
2018-03-24T05:32:15.979Z,21.60
2018-03-24T05:33:15.871Z,21.90
2018-03-24T05:34:15.797Z,19.90
2018-03-24T05:35:15.697Z,20.70
2018-03-24T05:36:15.622Z,20.50
2018-03-24T05:37:15.533Z,20.10
2018-03-24T05:38:15.459Z,21.80
2018-03-24T05:39:15.372Z,22.10
2018-03-24T05:40:15.298Z,22.60
2018-03-24T05:41:15.198Z,21.10
2018-03-24T05:42:15.122Z,21.40
2018-03-24T05:43:15.036Z,21.00
2018-03-24T05:44:14.959Z,20.00
2018-03-24T05:45:14.873Z,19.60
2018-03-24T05:46:14.799Z,20.90
2018-03-24T05:47:14.700Z,20.20
2018-03-24T05:48:14.623Z,20.80
2018-03-24T05:49:14.536Z,18.80
2018-03-24T05:50:14.471Z,21.00
2018-03-24T05:51:14.373Z,21.70
2018-03-24T05:52:14.299Z,20.40
2018-03-24T05:53:14.199Z,20.30
2018-03-24T05:54:14.124Z,19.90
2018-03-24T05:55:14.038Z,20.10
2018-03-24T05:56:13.950Z,20.90
2018-03-24T05:57:13.874Z,20.10
2018-03-24T05:58:13.787Z,19.20
2018-03-24T05:59:13.700Z,22.30
2018-03-24T06:00:13.625Z,21.30
2018-03-24T06:01:13.538Z,20.80
2018-03-24T06:02:13.450Z,19.00
2018-03-24T06:03:13.370Z,19.90
2018-03-24T06:04:13.287Z,19.50
2018-03-24T06:05:13.201Z,20.50
2018-03-24T06:06:13.125Z,20.70
2018-03-24T06:07:13.037Z,20.20
2018-03-24T06:08:12.952Z,21.30
2018-03-24T06:09:12.876Z,20.60
2018-03-24T06:10:12.787Z,21.40
2018-03-24T06:11:12.702Z,20.00
2018-03-24T06:12:12.626Z,22.20
2018-03-24T06:13:12.538Z,19.30
2018-03-24T06:14:12.452Z,21.90
2018-03-24T06:15:12.377Z,19.90
2018-03-24T06:16:12.289Z,21.30
2018-03-24T06:17:12.202Z,19.70
2018-03-24T06:18:12.127Z,19.50
2018-03-24T06:19:12.039Z,18.60
2018-03-24T06:20:11.952Z,19.10
2018-03-24T06:21:11.879Z,21.70
2018-03-24T06:22:11.788Z,20.40
2018-03-24T06:23:11.706Z,18.90
2018-03-24T06:24:11.627Z,21.70
2018-03-24T06:25:11.539Z,23.60
2018-03-24T06:26:11.454Z,20.10
2018-03-24T06:27:11.377Z,20.60
2018-03-24T06:28:11.289Z,21.00
2018-03-24T06:29:11.203Z,19.20
2018-03-24T06:30:11.128Z,19.30
2018-03-24T06:31:11.041Z,20.70
2018-03-24T06:32:10.965Z,21.20
2018-03-24T06:33:10.882Z,19.70
2018-03-24T06:34:10.791Z,21.60
2018-03-24T06:35:10.716Z,18.40
2018-03-24T06:36:10.629Z,19.10
2018-03-24T06:37:10.542Z,19.20
2018-03-24T06:38:10.480Z,19.60
2018-03-24T06:39:10.379Z,21.10
2018-03-24T06:40:10.296Z,20.40
2018-03-24T06:41:10.216Z,21.10
2018-03-24T06:42:10.130Z,18.80
2018-03-24T06:43:10.041Z,20.40
2018-03-24T06:44:09.968Z,19.30
2018-03-24T06:45:09.880Z,18.30
2018-03-24T06:46:09.807Z,21.50
2018-03-24T06:47:09.717Z,19.20
2018-03-24T06:48:09.631Z,19.00
2018-03-24T06:49:09.556Z,19.80
2018-03-24T06:50:09.482Z,20.70
2018-03-24T06:51:09.381Z,21.00
2018-03-24T06:52:09.311Z,20.40
2018-03-24T06:53:09.218Z,19.60
2018-03-24T06:54:09.143Z,19.60
2018-03-24T06:55:09.056Z,19.30
2018-03-24T06:56:08.981Z,20.80
2018-03-24T06:57:08.893Z,20.60
2018-03-24T06:58:08.810Z,20.00
2018-03-24T06:59:08.719Z,19.50
2018-03-24T07:00:08.643Z,20.10
2018-03-24T07:01:08.558Z,19.20
2018-03-24T07:02:08.482Z,18.60
2018-03-24T07:03:08.394Z,21.70
2018-03-24T07:04:08.315Z,20.00
2018-03-24T07:05:08.233Z,21.50
2018-03-24T07:06:08.145Z,19.00
2018-03-24T07:07:08.059Z,21.00
2018-03-24T07:08:07.983Z,19.10
2018-03-24T07:09:07.894Z,19.30
2018-03-24T07:10:07.821Z,20.90
2018-03-24T07:11:07.733Z,20.10
2018-03-24T07:12:07.646Z,20.50
2018-03-24T07:13:07.571Z,18.20
2018-03-24T07:14:07.485Z,19.80
2018-03-24T07:15:07.408Z,20.00
2018-03-24T07:16:07.335Z,20.80
2018-03-24T07:17:07.233Z,18.40
2018-03-24T07:18:07.158Z,18.80
2018-03-24T07:19:07.070Z,18.90
2018-03-24T07:20:06.996Z,20.70
2018-03-24T07:21:06.912Z,19.80
2018-03-24T07:22:06.822Z,20.30
2018-03-24T07:23:06.746Z,18.10
2018-03-24T07:24:06.658Z,20.50
2018-03-24T07:25:06.584Z,19.20
2018-03-24T07:26:06.495Z,18.60
2018-03-24T07:27:06.414Z,21.50
2018-03-24T07:28:06.336Z,20.50
2018-03-24T07:29:06.246Z,21.20
2018-03-24T07:30:06.172Z,19.00
2018-03-24T07:31:06.086Z,18.70
2018-03-24T07:32:06.000Z,18.70
2018-03-24T07:33:05.922Z,19.40
2018-03-24T07:34:05.837Z,19.70
2018-03-24T07:35:05.760Z,18.70
2018-03-24T07:36:05.672Z,19.60
2018-03-24T07:37:05.597Z,21.80
2018-03-24T07:38:05.511Z,19.10
2018-03-24T07:39:05.438Z,19.90
2018-03-24T07:40:05.348Z,20.00
2018-03-24T07:41:05.262Z,20.90
2018-03-24T07:42:05.187Z,19.40
2018-03-24T07:43:05.099Z,19.40
2018-03-24T07:44:05.024Z,19.20
2018-03-24T07:45:04.937Z,19.00
2018-03-24T07:46:04.849Z,18.90
2018-03-24T07:47:04.774Z,19.10
2018-03-24T07:48:04.686Z,18.90
2018-03-24T07:49:04.612Z,19.60
2018-03-24T07:50:04.526Z,21.20
2018-03-24T07:51:04.448Z,19.90
2018-03-24T07:52:04.362Z,20.80
2018-03-24T07:53:04.275Z,18.60
2018-03-24T07:54:04.200Z,17.60
2018-03-24T07:55:04.113Z,19.60
2018-03-24T07:56:04.039Z,19.70
2018-03-24T07:57:03.950Z,20.00
2018-03-24T07:58:03.875Z,18.60
2018-03-24T07:59:03.802Z,17.90
2018-03-24T08:00:03.704Z,18.40
2018-03-24T08:01:03.638Z,20.40
2018-03-24T08:02:03.538Z,17.50
2018-03-24T08:03:03.464Z,18.90
2018-03-24T08:04:03.376Z,18.60
2018-03-24T08:05:03.300Z,18.80
2018-03-24T08:06:03.214Z,16.80
2018-03-24T08:07:03.139Z,19.00
2018-03-24T08:08:03.051Z,18.20
2018-03-24T08:09:02.977Z,17.70
2018-03-24T08:10:02.890Z,17.20
2018-03-24T08:11:02.803Z,18.30
2018-03-24T08:12:02.744Z,17.60
2018-03-24T08:13:02.651Z,17.60
2018-03-24T08:14:02.565Z,17.30
2018-03-24T08:15:02.479Z,17.20
2018-03-24T08:16:02.402Z,16.60
2018-03-24T08:17:02.315Z,18.70
2018-03-24T08:18:02.241Z,17.30
2018-03-24T08:19:02.153Z,18.00
2018-03-24T08:20:02.078Z,19.00
2018-03-24T08:21:01.991Z,15.90
2018-03-24T08:22:01.916Z,16.50
2018-03-24T08:23:01.840Z,15.90
2018-03-24T08:24:01.752Z,17.00
2018-03-24T08:25:01.666Z,16.90
2018-03-24T08:26:01.597Z,16.50
2018-03-24T08:27:01.503Z,17.30
2018-03-24T08:28:01.417Z,15.70
2018-03-24T08:29:01.343Z,17.10
2018-03-24T08:30:01.255Z,17.50
2018-03-24T08:31:01.183Z,19.30
2018-03-24T08:32:01.092Z,17.70
2018-03-24T08:33:01.017Z,17.70
2018-03-24T08:34:00.932Z,16.50
2018-03-24T08:35:00.854Z,17.20
2018-03-24T08:36:00.767Z,17.00
2018-03-24T08:37:00.692Z,16.60
2018-03-24T08:38:00.604Z,15.80
2018-03-24T08:39:00.530Z,16.40
2018-03-24T08:40:00.443Z,17.00
2018-03-24T08:41:00.368Z,15.00
2018-03-24T08:42:00.281Z,16.40
2018-03-24T08:43:00.204Z,19.20
2018-03-24T08:44:00.118Z,16.70
2018-03-24T08:45:00.088Z,17.00
2018-03-24T08:45:59.956Z,16.10
2018-03-24T08:46:59.881Z,17.00
2018-03-24T08:47:59.794Z,17.70
2018-03-24T08:48:59.725Z,16.70
2018-03-24T08:49:59.631Z,16.30
2018-03-24T08:50:59.555Z,16.80
2018-03-24T08:51:59.469Z,16.10
2018-03-24T08:52:59.393Z,18.40
2018-03-24T08:53:59.306Z,17.90
2018-03-24T08:54:59.230Z,17.60
2018-03-24T08:55:59.145Z,15.70
2018-03-24T08:56:59.070Z,15.60
2018-03-24T08:57:58.982Z,17.80
2018-03-24T08:58:58.906Z,16.40
2018-03-24T08:59:58.821Z,16.10
2018-03-24T09:00:58.747Z,18.00
2018-03-24T09:01:58.659Z,17.00
2018-03-24T09:02:58.582Z,16.90
2018-03-24T09:03:58.495Z,17.00
2018-03-24T09:04:58.425Z,17.00
2018-03-24T09:05:58.333Z,15.40
2018-03-24T09:06:58.258Z,18.20
2018-03-24T09:07:58.171Z,17.30
2018-03-24T09:08:58.096Z,18.40
2018-03-24T09:09:58.020Z,16.50
2018-03-24T09:10:57.933Z,17.60
2018-03-24T09:11:57.848Z,17.10
2018-03-24T09:12:57.772Z,16.60
2018-03-24T09:13:57.683Z,17.60
2018-03-24T09:14:57.621Z,16.90
2018-03-24T09:15:57.522Z,18.80
2018-03-24T09:16:57.453Z,16.30
2018-03-24T09:17:57.360Z,18.30
2018-03-24T09:18:57.284Z,16.90
2018-03-24T09:19:57.209Z,17.80
2018-03-24T09:20:57.123Z,17.80
2018-03-24T09:21:57.052Z,18.40
2018-03-24T09:22:56.964Z,17.10
2018-03-24T09:23:56.884Z,17.90
2018-03-24T09:24:56.798Z,18.10
2018-03-24T09:25:56.723Z,17.20
2018-03-24T09:26:56.635Z,16.30
2018-03-24T09:27:56.568Z,16.80
2018-03-24T09:28:56.474Z,17.10
2018-03-24T09:29:56.398Z,15.80
2018-03-24T09:30:56.315Z,18.00
2018-03-24T09:31:56.236Z,17.70
2018-03-24T09:32:56.163Z,16.20
2018-03-24T09:33:56.077Z,17.30
2018-03-24T09:34:56.002Z,18.70
2018-03-24T09:35:55.912Z,17.20
2018-03-24T09:36:55.837Z,17.70
2018-03-24T09:37:55.760Z,18.80
2018-03-24T09:38:55.674Z,18.70
2018-03-24T09:39:55.600Z,17.70
2018-03-24T09:40:55.526Z,18.20
2018-03-24T09:41:55.437Z,18.30
2018-03-24T09:42:55.354Z,17.50
2018-03-24T09:43:55.275Z,17.60
2018-03-24T09:44:55.201Z,18.70
2018-03-24T09:45:55.125Z,18.80
2018-03-24T09:46:55.037Z,16.80
2018-03-24T09:47:54.954Z,17.50
2018-03-24T09:48:54.875Z,17.10
2018-03-24T09:49:54.800Z,18.60
2018-03-24T09:50:54.726Z,17.30
2018-03-24T09:51:54.651Z,18.30
2018-03-24T09:52:54.566Z,17.30
2018-03-24T09:53:54.477Z,18.30
2018-03-24T09:54:54.390Z,16.60
2018-03-24T09:55:54.327Z,18.40
2018-03-24T09:56:54.238Z,17.20
2018-03-24T09:57:54.157Z,16.80
2018-03-24T09:58:54.076Z,16.60
2018-03-24T09:59:54.005Z,17.10
2018-03-24T10:00:53.927Z,17.60
2018-03-24T10:01:53.838Z,18.30
2018-03-24T10:02:53.767Z,17.00
2018-03-24T10:03:53.677Z,16.20
2018-03-24T10:04:53.609Z,17.60
2018-03-24T10:05:53.528Z,17.60
2018-03-24T10:06:53.439Z,17.30
2018-03-24T10:07:53.365Z,17.20
2018-03-24T10:08:53.278Z,16.80
2018-03-24T10:09:53.204Z,17.80
2018-03-24T10:10:53.128Z,17.60
2018-03-24T10:11:53.040Z,18.50
2018-03-24T10:12:52.966Z,18.70
2018-03-24T10:13:52.890Z,18.40
2018-03-24T10:14:52.803Z,18.30
2018-03-24T10:15:52.729Z,18.90
2018-03-24T10:16:52.653Z,17.50
2018-03-24T10:17:52.567Z,17.10
2018-03-24T10:18:52.491Z,17.10
2018-03-24T10:19:52.416Z,16.90
2018-03-24T10:20:52.329Z,15.90
2018-03-24T10:21:52.254Z,16.60
2018-03-24T10:22:52.167Z,16.50
2018-03-24T10:23:52.091Z,16.40
2018-03-24T10:24:52.016Z,16.10
2018-03-24T10:25:51.930Z,16.40
2018-03-24T10:26:51.854Z,16.30
2018-03-24T10:27:51.768Z,16.60
2018-03-24T10:28:51.719Z,15.10
2018-03-24T10:29:51.617Z,15.50
2018-03-24T10:30:51.530Z,16.40
2018-03-24T10:31:51.455Z,17.80
2018-03-24T10:32:51.381Z,17.10
2018-03-24T10:33:51.306Z,15.20
2018-03-24T10:34:51.217Z,15.60
2018-03-24T10:35:51.142Z,16.70
2018-03-24T10:36:51.056Z,15.00
2018-03-24T10:37:50.981Z,16.70
2018-03-24T10:38:50.906Z,16.30
2018-03-24T10:39:50.819Z,15.00
2018-03-24T10:40:50.744Z,14.60
2018-03-24T10:41:50.670Z,15.90
2018-03-24T10:42:50.583Z,15.20
2018-03-24T10:43:50.507Z,15.80
2018-03-24T10:44:50.432Z,15.90
2018-03-24T10:45:50.344Z,15.60
2018-03-24T10:46:50.270Z,16.70
2018-03-24T10:47:50.194Z,16.50
2018-03-24T10:48:50.106Z,15.80
2018-03-24T10:49:50.033Z,14.70
2018-03-24T10:50:49.946Z,15.20
2018-03-24T10:51:49.871Z,14.90
2018-03-24T10:52:49.794Z,12.00
2018-03-24T10:53:49.708Z,12.90
2018-03-24T10:54:49.632Z,13.90
2018-03-24T10:55:49.558Z,14.60
2018-03-24T10:56:49.470Z,14.50
2018-03-24T10:57:49.395Z,9.40
2018-03-24T10:58:49.320Z,9.10
2018-03-24T10:59:49.233Z,10.30
2018-03-24T11:00:49.158Z,9.70
2018-03-24T11:01:49.084Z,9.70
2018-03-24T11:02:48.997Z,11.20
2018-03-24T11:03:48.923Z,13.30
2018-03-24T11:04:48.834Z,11.80
2018-03-24T11:05:48.764Z,11.70
2018-03-24T11:06:48.685Z,12.10
2018-03-24T11:07:48.596Z,11.60
2018-03-24T11:08:48.521Z,11.90
2018-03-24T11:09:48.435Z,12.20
2018-03-24T11:10:48.360Z,11.10
2018-03-24T11:11:48.284Z,11.50
2018-03-24T11:12:48.197Z,12.30
2018-03-24T11:13:48.135Z,12.30
2018-03-24T11:14:48.036Z,13.20
2018-03-24T11:15:47.960Z,15.10
2018-03-24T11:16:47.890Z,14.90
2018-03-24T11:17:47.797Z,14.40
2018-03-24T11:18:47.728Z,14.70
2018-03-24T11:19:47.647Z,14.00
2018-03-24T11:20:47.560Z,12.10
2018-03-24T11:21:47.487Z,13.10
2018-03-24T11:22:47.398Z,12.20
2018-03-24T11:23:47.325Z,12.20
2018-03-24T11:24:47.247Z,13.70
2018-03-24T11:25:47.163Z,11.50
2018-03-24T11:26:47.087Z,12.20
2018-03-24T11:27:46.999Z,13.30
2018-03-24T11:28:46.936Z,13.10
2018-03-24T11:29:46.848Z,14.10
2018-03-24T11:30:46.761Z,11.60
2018-03-24T11:31:46.687Z,12.40
2018-03-24T11:32:46.612Z,12.60
2018-03-24T11:33:46.524Z,11.80
2018-03-24T11:34:46.449Z,12.90
2018-03-24T11:35:46.363Z,11.20
2018-03-24T11:36:46.288Z,11.80
2018-03-24T11:37:46.212Z,12.10
2018-03-24T11:38:46.127Z,10.90
2018-03-24T11:39:46.051Z,12.90
2018-03-24T11:40:45.981Z,13.20
2018-03-24T11:41:45.888Z,11.70
2018-03-24T11:42:45.813Z,11.70
2018-03-24T11:43:45.739Z,11.90
2018-03-24T11:44:45.650Z,13.00
2018-03-24T11:45:45.576Z,13.70
2018-03-24T11:46:45.502Z,12.90
2018-03-24T11:47:45.414Z,12.30
2018-03-24T11:48:45.339Z,11.30
2018-03-24T11:49:45.269Z,11.10
2018-03-24T11:50:45.176Z,11.40
2018-03-24T11:51:45.101Z,12.40
2018-03-24T11:52:45.026Z,12.60
2018-03-24T11:53:44.942Z,11.40
2018-03-24T11:54:44.864Z,12.40
2018-03-24T11:55:44.795Z,12.20
2018-03-24T11:56:44.702Z,11.40
2018-03-24T11:57:44.626Z,12.60
2018-03-24T11:58:44.566Z,12.70
2018-03-24T11:59:44.464Z,12.20
2018-03-24T12:00:44.390Z,11.70
2018-03-24T12:01:44.315Z,11.40
2018-03-24T12:02:44.227Z,13.00
2018-03-24T12:03:44.152Z,14.00
2018-03-24T12:04:44.077Z,12.40
2018-03-24T12:05:43.990Z,13.60
2018-03-24T12:06:43.915Z,12.30
2018-03-24T12:07:43.841Z,12.80
2018-03-24T12:08:43.753Z,12.30
2018-03-24T12:09:43.678Z,13.50
2018-03-24T12:10:43.591Z,12.90
2018-03-24T12:11:43.517Z,14.20
2018-03-24T12:12:43.440Z,14.30
2018-03-24T12:13:43.354Z,13.80
2018-03-24T12:14:43.279Z,13.60
2018-03-24T12:15:43.203Z,13.80
2018-03-24T12:16:43.117Z,13.30
2018-03-24T12:17:43.041Z,14.80
2018-03-24T12:18:42.966Z,12.90
2018-03-24T12:19:42.879Z,12.90
2018-03-24T12:20:42.804Z,13.10
2018-03-24T12:21:42.731Z,12.80
2018-03-24T12:22:42.648Z,14.00
2018-03-24T12:23:42.566Z,13.70
2018-03-24T12:24:42.493Z,12.20
2018-03-24T12:25:42.406Z,13.40
2018-03-24T12:26:42.329Z,12.20
2018-03-24T12:27:42.255Z,12.70
2018-03-24T12:28:42.182Z,13.20
2018-03-24T12:29:42.093Z,13.40
2018-03-24T12:30:42.006Z,13.20
2018-03-24T12:31:41.935Z,13.20
2018-03-24T12:32:41.855Z,13.00
2018-03-24T12:33:41.769Z,13.60
2018-03-24T12:34:41.694Z,13.30
2018-03-24T12:35:41.670Z,13.10
2018-03-24T12:36:41.531Z,13.30
2018-03-24T12:37:41.456Z,11.70
2018-03-24T12:38:41.381Z,13.90
2018-03-24T12:39:41.295Z,13.50
2018-03-24T12:40:41.219Z,13.40
2018-03-24T12:41:41.144Z,13.10
2018-03-24T12:42:41.057Z,12.10
2018-03-24T12:43:40.981Z,12.80
2018-03-24T12:44:40.919Z,12.80
2018-03-24T12:45:40.820Z,11.40
2018-03-24T12:46:40.754Z,12.10
2018-03-24T12:47:40.670Z,13.10
2018-03-24T12:48:40.584Z,13.40
2018-03-24T12:49:40.519Z,13.90
2018-03-24T12:50:40.480Z,13.10
2018-03-24T12:51:40.357Z,11.30